Time;durP1;ratioP1;P1;durP2;ratioP2;P2;SDS_P1;SDS_P2;PMS_P1;PMS_P2;Temp;Humidity;BMP_temperature;BMP_pressure;BME280_temperature;BME280_humidity;BME280_pressure;Samples;Min_cycle;Max_cycle;Signal;HPM_P1;HPM_P2
2022/12/25 00:00:46;;;;;;;29.60;10.00;;;;;;;;;;5016692;28;20518;-79
2022/12/25 00:03:12;;;;;;;37.58;9.77;;;;;;;;;;5016588;28;20026;-78
2022/12/25 00:05:38;;;;;;;38.78;9.82;;;;;;;;;;5016538;28;20104;-78
2022/12/25 00:08:05;;;;;;;39.92;10.18;;;;;;;;;;5016846;28;20034;-79
2022/12/25 00:10:31;;;;;;;46.45;10.75;;;;;;;;;;5016791;28;20032;-78
2022/12/25 00:12:57;;;;;;;39.90;11.27;;;;;;;;;;5016555;28;20026;-79
2022/12/25 00:15:23;;;;;;;34.92;11.52;;;;;;;;;;5016395;28;20080;-78
2022/12/25 00:17:49;;;;;;;42.55;10.35;;;;;;;;;;5016469;28;20101;-79
2022/12/25 00:20:15;;;;;;;41.28;10.95;;;;;;;;;;5016515;28;20409;-78
2022/12/25 00:22:41;;;;;;;48.90;11.75;;;;;;;;;;5016347;28;20033;-78
2022/12/25 00:25:07;;;;;;;51.92;12.23;;;;;;;;;;5016399;28;20034;-78
2022/12/25 00:27:36;;;;;;;45.05;11.85;;;;;;;;;;5016239;28;20104;-78
2022/12/25 00:30:02;;;;;;;45.53;11.30;;;;;;;;;;5016352;28;20025;-79
2022/12/25 00:32:28;;;;;;;41.53;11.63;;;;;;;;;;5016220;28;20079;-78
2022/12/25 00:34:54;;;;;;;57.35;12.90;;;;;;;;;;5016363;28;20022;-79
2022/12/25 00:37:20;;;;;;;50.47;12.68;;;;;;;;;;5016176;28;20380;-79
2022/12/25 00:39:48;;;;;;;46.28;12.82;;;;;;;;;;5016116;28;20068;-79
2022/12/25 00:42:19;;;;;;;52.92;14.35;;;;;;;;;;5016268;28;20030;-78
2022/12/25 00:44:49;;;;;;;50.10;13.13;;;;;;;;;;5016162;28;20030;-79
2022/12/25 00:47:16;;;;;;;44.00;12.93;;;;;;;;;;5016044;28;20026;-79
2022/12/25 00:49:42;;;;;;;51.20;12.48;;;;;;;;;;5016266;28;20025;-78
2022/12/25 00:52:08;;;;;;;57.88;13.43;;;;;;;;;;5016218;28;20481;-78
2022/12/25 00:54:34;;;;;;;42.92;12.60;;;;;;;;;;5015457;28;20461;-78
2022/12/25 00:57:00;;;;;;;66.05;14.80;;;;;;;;;;5015529;28;20054;-78
2022/12/25 00:59:26;;;;;;;45.15;12.65;;;;;;;;;;5015217;28;20054;-78
2022/12/25 01:01:52;;;;;;;53.85;12.88;;;;;;;;;;5016223;28;20034;-79
2022/12/25 01:04:18;;;;;;;64.85;14.90;;;;;;;;;;5015498;28;20391;-79
2022/12/25 01:06:44;;;;;;;66.13;14.30;;;;;;;;;;5015753;28;20026;-78
2022/12/25 01:11:55;;;;;;;60.70;15.15;;;;;;;;;;5015830;28;20045;-79
2022/12/25 01:14:21;;;;;;;55.92;14.68;;;;;;;;;;5015695;28;20025;-78
2022/12/25 01:16:47;;;;;;;49.53;14.95;;;;;;;;;;5015705;28;20075;-79
2022/12/25 01:19:13;;;;;;;55.28;16.25;;;;;;;;;;5015560;28;20048;-78
2022/12/25 01:21:39;;;;;;;67.25;16.52;;;;;;;;;;5015482;28;20040;-78
2022/12/25 01:24:05;;;;;;;57.15;14.35;;;;;;;;;;5015070;28;20030;-79
2022/12/25 01:26:31;;;;;;;58.28;14.23;;;;;;;;;;5015482;28;20018;-79
2022/12/25 01:28:57;;;;;;;63.85;14.52;;;;;;;;;;5015241;28;20033;-78
2022/12/25 01:31:24;;;;;;;68.40;16.40;;;;;;;;;;5015167;28;20377;-79
2022/12/25 01:33:50;;;;;;;60.17;14.85;;;;;;;;;;5015098;28;20069;-78
2022/12/25 01:36:17;;;;;;;82.63;17.45;;;;;;;;;;5015222;28;20026;-78
2022/12/25 01:38:44;;;;;;;90.88;22.60;;;;;;;;;;5015234;28;20512;-78
2022/12/25 01:41:10;;;;;;;381.50;114.18;;;;;;;;;;5015019;28;20026;-79
2022/12/25 01:43:55;;;;;;;304.10;98.95;;;;;;;;;;5014931;28;20033;-78
2022/12/25 01:46:21;;;;;;;171.55;48.50;;;;;;;;;;5014884;28;20088;-78
2022/12/25 01:48:47;;;;;;;88.80;22.45;;;;;;;;;;5015254;28;20022;-78
2022/12/25 01:51:34;;;;;;;72.80;18.05;;;;;;;;;;5014796;28;20030;-78
2022/12/25 01:54:03;;;;;;;65.22;17.02;;;;;;;;;;5014765;28;20041;-79
2022/12/25 01:56:29;;;;;;;68.88;18.48;;;;;;;;;;5014674;28;20054;-78
2022/12/25 01:58:56;;;;;;;75.10;18.50;;;;;;;;;;5014750;28;20030;-78
2022/12/25 02:01:22;;;;;;;71.10;18.10;;;;;;;;;;5014569;28;20061;-78
2022/12/25 02:03:48;;;;;;;77.18;18.77;;;;;;;;;;5014899;28;20022;-78
2022/12/25 02:06:14;;;;;;;81.00;19.70;;;;;;;;;;5014593;28;20109;-78
2022/12/25 02:08:40;;;;;;;77.18;18.70;;;;;;;;;;5014432;28;20026;-78
2022/12/25 02:11:55;;;;;;;81.03;20.30;;;;;;;;;;5013439;28;20030;-79
2022/12/25 02:13:54;;;;;;;69.53;18.17;;;;;;;;;;5014379;28;20026;-79
2022/12/25 02:16:21;;;;;;;71.88;17.58;;;;;;;;;;5014389;28;20483;-79
2022/12/25 02:18:58;;;;;;;74.75;19.58;;;;;;;;;;5014517;28;20026;-79
2022/12/25 02:21:43;;;;;;;72.60;20.25;;;;;;;;;;5014056;28;20030;-78
2022/12/25 02:24:09;;;;;;;65.18;18.35;;;;;;;;;;5014162;28;20022;-79
2022/12/25 02:26:57;;;;;;;72.00;19.85;;;;;;;;;;5014087;28;20155;-79
2022/12/25 02:29:32;;;;;;;61.53;18.58;;;;;;;;;;5014184;28;20038;-79
2022/12/25 02:32:04;;;;;;;67.95;18.42;;;;;;;;;;5014266;28;20072;-79
2022/12/25 02:34:36;;;;;;;69.05;18.20;;;;;;;;;;5014493;28;20026;-79
2022/12/25 02:37:07;;;;;;;62.20;18.08;;;;;;;;;;5014376;28;20022;-79
2022/12/25 02:39:57;;;;;;;66.30;19.15;;;;;;;;;;5014191;28;20108;-78
2022/12/25 03:07:43;;;;;;;57.05;15.82;;;;;;;;;;5016159;28;20037;-79
2022/12/25 03:13:17;;;;;;;57.65;15.63;;;;;;;;;;5016958;28;20404;-79
2022/12/25 03:18:30;;;;;;;52.47;16.33;;;;;;;;;;5015763;28;20076;-79
2022/12/25 03:31:10;;;;;;;55.47;17.63;;;;;;;;;;5019686;28;20457;-79
2022/12/25 03:32:06;;;;;;;51.08;17.33;;;;;;;;;;5019090;28;20034;-79
2022/12/25 03:41:20;;;;;;;68.05;19.75;;;;;;;;;;5018606;28;20030;-79
2022/12/25 04:38:30;;;;;;;74.18;20.67;;;;;;;;;;5016120;28;20099;-79
2022/12/25 04:40:56;;;;;;;77.57;21.45;;;;;;;;;;5016126;28;20603;-79
2022/12/25 04:43:24;;;;;;;79.88;21.13;;;;;;;;;;5016131;28;20026;-78
2022/12/25 04:45:56;;;;;;;67.50;20.45;;;;;;;;;;5018022;28;20022;-79
2022/12/25 04:48:23;;;;;;;53.65;18.73;;;;;;;;;;5019823;28;20026;-79
2022/12/25 04:50:49;;;;;;;67.65;18.88;;;;;;;;;;5019676;28;20029;-79
2022/12/25 04:53:15;;;;;;;56.50;19.13;;;;;;;;;;5019933;28;20041;-79
2022/12/25 04:55:41;;;;;;;51.63;16.95;;;;;;;;;;5020120;28;20105;-80
2022/12/25 04:58:07;;;;;;;44.67;17.25;;;;;;;;;;5018663;28;20457;-79
2022/12/25 05:00:33;;;;;;;52.50;17.77;;;;;;;;;;5018757;28;20393;-79
2022/12/25 05:02:59;;;;;;;54.97;17.05;;;;;;;;;;5017949;28;20041;-79
2022/12/25 05:05:25;;;;;;;45.72;16.88;;;;;;;;;;5018463;28;20037;-79
2022/12/25 05:07:51;;;;;;;58.35;18.27;;;;;;;;;;5017845;28;20465;-79
2022/12/25 05:10:17;;;;;;;58.85;16.70;;;;;;;;;;5017980;28;20140;-79
2022/12/25 05:12:43;;;;;;;50.50;17.25;;;;;;;;;;5017399;28;20030;-79
2022/12/25 05:15:10;;;;;;;54.40;17.10;;;;;;;;;;5017310;28;20487;-79
2022/12/25 05:17:36;;;;;;;62.25;18.90;;;;;;;;;;5017318;28;20480;-79
2022/12/25 05:20:02;;;;;;;48.53;17.55;;;;;;;;;;5017203;28;20030;-79
2022/12/25 05:22:28;;;;;;;51.38;17.92;;;;;;;;;;5017287;28;20041;-79
2022/12/25 05:24:54;;;;;;;45.53;15.35;;;;;;;;;;5017165;28;20026;-79
2022/12/25 05:27:20;;;;;;;51.35;16.90;;;;;;;;;;5016573;28;20384;-79
2022/12/25 05:29:46;;;;;;;60.35;17.85;;;;;;;;;;5016856;28;20132;-79
2022/12/25 05:32:12;;;;;;;50.25;17.60;;;;;;;;;;5016362;28;20133;-79
2022/12/25 05:34:38;;;;;;;48.78;16.95;;;;;;;;;;5016787;28;20021;-79
2022/12/25 05:37:04;;;;;;;54.17;17.48;;;;;;;;;;5015952;28;20028;-79
2022/12/25 05:39:30;;;;;;;52.85;17.98;;;;;;;;;;5015919;28;20464;-79
2022/12/25 05:41:56;;;;;;;46.92;16.92;;;;;;;;;;5015807;28;20116;-79
2022/12/25 05:44:22;;;;;;;51.00;17.50;;;;;;;;;;5015212;28;20033;-79
2022/12/25 05:46:48;;;;;;;48.40;16.15;;;;;;;;;;5015374;28;20032;-79
2022/12/25 05:49:14;;;;;;;59.78;18.92;;;;;;;;;;5015833;28;20032;-79
2022/12/25 05:51:40;;;;;;;50.92;17.75;;;;;;;;;;5015600;28;20029;-79
2022/12/25 05:54:06;;;;;;;55.05;17.75;;;;;;;;;;5015453;28;20026;-79
2022/12/25 05:56:32;;;;;;;45.30;16.60;;;;;;;;;;5015059;28;20105;-79
2022/12/25 05:58:58;;;;;;;52.53;17.73;;;;;;;;;;5014830;28;20056;-79
2022/12/25 06:01:25;;;;;;;55.42;18.70;;;;;;;;;;5014867;28;20108;-79
2022/12/25 06:03:52;;;;;;;47.67;18.15;;;;;;;;;;5015073;28;20022;-79
2022/12/25 06:06:18;;;;;;;50.80;18.10;;;;;;;;;;5014754;28;20026;-79
2022/12/25 06:08:44;;;;;;;44.28;16.73;;;;;;;;;;5015031;28;20026;-79
2022/12/25 06:11:12;;;;;;;54.08;17.42;;;;;;;;;;5014800;28;20026;-79
2022/12/25 06:13:37;;;;;;;59.85;18.75;;;;;;;;;;5014553;28;20469;-79
2022/12/25 06:16:08;;;;;;;54.25;18.30;;;;;;;;;;5014558;28;20032;-79
2022/12/25 06:18:34;;;;;;;;;;;;;;;;;;5015350;28;20049;-79
2022/12/25 06:21:00;;;;;;;42.17;17.23;;;;;;;;;;5014626;28;19910;-79
2022/12/25 06:23:26;;;;;;;56.55;17.92;;;;;;;;;;5014729;28;20080;-79
2022/12/25 06:25:52;;;;;;;44.60;17.35;;;;;;;;;;5014627;28;20380;-79
2022/12/25 06:28:18;;;;;;;50.42;17.30;;;;;;;;;;5014677;28;20026;-79
2022/12/25 06:30:43;;;;;;;52.92;17.85;;;;;;;;;;5014454;28;20457;-79
2022/12/25 06:33:09;;;;;;;52.35;18.05;;;;;;;;;;5014415;28;20021;-79
2022/12/25 06:35:38;;;;;;;53.88;17.33;;;;;;;;;;5014484;28;20022;-79
2022/12/25 06:38:04;;;;;;;44.72;17.23;;;;;;;;;;5022114;28;20029;-79
2022/12/25 06:40:30;;;;;;;40.55;15.57;;;;;;;;;;5019569;28;20026;-79
2022/12/25 06:42:56;;;;;;;50.03;18.27;;;;;;;;;;5019457;28;20109;-79
2022/12/25 06:45:22;;;;;;;55.83;18.13;;;;;;;;;;5018899;28;20022;-79
2022/12/25 06:47:48;;;;;;;46.47;17.05;;;;;;;;;;5036069;28;20026;-79
2022/12/25 06:50:14;;;;;;;46.13;18.02;;;;;;;;;;5037757;28;20476;-79
2022/12/25 06:52:39;;;;;;;60.75;18.33;;;;;;;;;;5037186;28;20025;-79
2022/12/25 06:55:06;;;;;;;51.50;18.00;;;;;;;;;;5037298;28;20025;-79
2022/12/25 06:57:32;;;;;;;45.08;17.55;;;;;;;;;;5038411;28;20095;-79
2022/12/25 06:59:58;;;;;;;55.88;18.52;;;;;;;;;;5041213;28;20025;-79
2022/12/25 07:02:24;;;;;;;47.70;18.48;;;;;;;;;;5040762;28;20052;-79
2022/12/25 07:04:50;;;;;;;49.58;17.38;;;;;;;;;;5040904;28;20114;-79
2022/12/25 07:07:16;;;;;;;48.20;17.05;;;;;;;;;;5040517;28;20100;-79
2022/12/25 07:09:42;;;;;;;54.50;20.50;;;;;;;;;;5040230;28;20049;-79
2022/12/25 07:12:14;;;;;;;52.38;18.75;;;;;;;;;;5039822;28;20105;-79
2022/12/25 07:14:40;;;;;;;51.67;17.55;;;;;;;;;;5039280;28;20105;-79
2022/12/25 07:17:06;;;;;;;48.65;18.23;;;;;;;;;;5040172;28;20053;-79
2022/12/25 07:19:32;;;;;;;51.72;17.98;;;;;;;;;;5040119;28;20423;-79
2022/12/25 07:22:01;;;;;;;47.60;18.17;;;;;;;;;;5039498;28;20040;-79
2022/12/25 07:24:27;;;;;;;56.55;18.67;;;;;;;;;;5039282;28;20037;-79
2022/12/25 07:26:53;;;;;;;44.05;16.63;;;;;;;;;;5038836;28;20037;-79
2022/12/25 07:29:19;;;;;;;48.65;16.30;;;;;;;;;;5039124;28;20021;-79
2022/12/25 07:31:45;;;;;;;48.38;18.02;;;;;;;;;;5038830;28;20029;-79
2022/12/25 07:34:11;;;;;;;46.13;17.25;;;;;;;;;;5038815;28;20467;-79
2022/12/25 07:36:37;;;;;;;50.65;17.88;;;;;;;;;;5038747;28;20060;-79
2022/12/25 07:39:03;;;;;;;47.38;17.92;;;;;;;;;;5038220;28;20033;-80
2022/12/25 07:41:29;;;;;;;45.30;16.50;;;;;;;;;;5038069;28;20060;-79
2022/12/25 07:43:55;;;;;;;43.38;16.00;;;;;;;;;;5028337;28;20487;-79
2022/12/25 07:46:22;;;;;;;38.40;14.55;;;;;;;;;;5017301;28;20065;-80
2022/12/25 07:48:48;;;;;;;35.35;14.80;;;;;;;;;;5036383;28;20022;-79
2022/12/25 07:51:15;;;;;;;37.70;15.20;;;;;;;;;;5036701;28;20029;-79
2022/12/25 07:53:49;;;;;;;36.40;15.27;;;;;;;;;;5036458;28;20079;-79
2022/12/25 07:56:16;;;;;;;34.00;13.68;;;;;;;;;;5036868;28;20104;-79
2022/12/25 07:58:43;;;;;;;35.42;15.55;;;;;;;;;;5036213;28;20080;-79
2022/12/25 08:01:15;;;;;;;32.15;14.25;;;;;;;;;;5036461;28;20033;-79
2022/12/25 08:03:41;;;;;;;29.20;13.68;;;;;;;;;;5036658;28;20084;-79
2022/12/25 08:06:08;;;;;;;31.55;12.55;;;;;;;;;;5038307;28;20411;-79
2022/12/25 08:08:35;;;;;;;30.40;12.82;;;;;;;;;;5036555;28;20069;-79
2022/12/25 08:11:01;;;;;;;32.75;12.57;;;;;;;;;;5036702;28;20598;-79
2022/12/25 08:13:31;;;;;;;31.10;12.50;;;;;;;;;;5036076;28;20496;-79
2022/12/25 08:15:58;;;;;;;28.48;11.98;;;;;;;;;;5036088;28;20129;-79
2022/12/25 08:18:24;;;;;;;34.08;12.05;;;;;;;;;;5036049;28;20064;-80
2022/12/25 08:20:50;;;;;;;33.85;12.30;;;;;;;;;;5036137;28;20112;-79
2022/12/25 08:23:16;;;;;;;25.92;11.55;;;;;;;;;;5037222;28;20110;-79
2022/12/25 08:25:42;;;;;;;28.08;12.10;;;;;;;;;;5040196;28;20049;-79
2022/12/25 08:28:08;;;;;;;30.92;11.60;;;;;;;;;;5036598;28;20030;-79
2022/12/25 08:30:34;;;;;;;66.28;14.27;;;;;;;;;;5041277;28;20087;-80
2022/12/25 08:33:00;;;;;;;76.18;13.65;;;;;;;;;;5041177;28;20040;-79
2022/12/25 08:35:26;;;;;;;38.75;11.10;;;;;;;;;;5041602;28;20026;-80
2022/12/25 08:37:52;;;;;;;31.35;11.00;;;;;;;;;;5041342;28;20026;-79
2022/12/25 08:40:18;;;;;;;22.48;9.85;;;;;;;;;;5039709;28;20026;-79
2022/12/25 08:42:44;;;;;;;30.33;10.63;;;;;;;;;;5039684;28;20127;-80
2022/12/25 08:45:10;;;;;;;23.08;9.88;;;;;;;;;;5040089;28;20492;-79
2022/12/25 08:47:36;;;;;;;27.10;9.48;;;;;;;;;;5039233;28;20025;-80
2022/12/25 08:50:02;;;;;;;23.23;9.52;;;;;;;;;;5038896;28;20083;-79
2022/12/25 08:52:28;;;;;;;20.02;9.15;;;;;;;;;;5038393;28;20033;-79
2022/12/25 08:54:55;;;;;;;24.30;9.43;;;;;;;;;;5039162;28;20036;-79
2022/12/25 08:57:21;;;;;;;23.23;10.10;;;;;;;;;;5036392;28;20395;-77
2022/12/25 08:59:47;;;;;;;24.33;10.10;;;;;;;;;;5035873;28;20361;-78
2022/12/25 09:02:13;;;;;;;21.88;9.88;;;;;;;;;;5035747;28;20037;-77
2022/12/25 09:04:39;;;;;;;29.27;10.68;;;;;;;;;;5034950;28;20423;-76
2022/12/25 09:07:05;;;;;;;27.63;10.27;;;;;;;;;;5034685;28;20036;-76
2022/12/25 09:09:31;;;;;;;27.73;10.75;;;;;;;;;;5034903;28;20380;-76
2022/12/25 09:11:56;;;;;;;27.45;10.77;;;;;;;;;;5034761;28;20748;-76
2022/12/25 09:14:22;;;;;;;27.67;10.15;;;;;;;;;;5034523;28;20025;-76
2022/12/25 09:16:51;;;;;;;27.75;11.45;;;;;;;;;;5034252;28;20035;-76
2022/12/25 09:19:17;;;;;;;30.55;10.65;;;;;;;;;;5034325;28;20084;-76
2022/12/25 09:21:47;;;;;;;33.95;11.18;;;;;;;;;;5029805;28;20037;-77
2022/12/25 09:24:14;;;;;;;37.13;12.65;;;;;;;;;;5030746;28;20018;-78
2022/12/25 09:26:40;;;;;;;34.33;11.82;;;;;;;;;;5022646;28;20045;-77
2022/12/25 09:29:06;;;;;;;32.95;12.52;;;;;;;;;;5033430;28;20684;-77
2022/12/25 09:31:32;;;;;;;32.05;11.52;;;;;;;;;;5033129;28;20057;-77
2022/12/25 09:33:58;;;;;;;33.60;12.32;;;;;;;;;;5032955;28;20095;-77
2022/12/25 09:36:24;;;;;;;25.85;10.90;;;;;;;;;;5019326;28;20033;-77
2022/12/25 09:38:51;;;;;;;32.95;12.63;;;;;;;;;;5030310;28;20025;-77
2022/12/25 09:41:27;;;;;;;25.15;10.50;;;;;;;;;;5032929;28;20018;-77
2022/12/25 09:43:57;;;;;;;27.23;10.20;;;;;;;;;;5019362;28;20034;-77
2022/12/25 09:46:25;;;;;;;29.95;10.98;;;;;;;;;;5031506;28;20044;-77
2022/12/25 09:48:58;;;;;;;26.27;11.05;;;;;;;;;;5032778;28;20381;-78
2022/12/25 09:51:24;;;;;;;33.47;10.77;;;;;;;;;;5032915;28;20037;-79
2022/12/25 09:54:17;;;;;;;29.58;10.70;;;;;;;;;;5029218;28;20033;-77
2022/12/25 09:56:43;;;;;;;28.35;10.55;;;;;;;;;;4982413;28;20036;-78
2022/12/25 09:59:16;;;;;;;34.45;11.60;;;;;;;;;;5033456;28;20105;-77
2022/12/25 10:01:57;;;;;;;30.70;11.43;;;;;;;;;;5032574;28;20036;-77
2022/12/25 10:04:28;;;;;;;30.23;11.25;;;;;;;;;;5032913;28;20033;-77
2022/12/25 10:06:54;;;;;;;32.10;11.63;;;;;;;;;;5032920;28;20029;-77
2022/12/25 10:09:34;;;;;;;30.67;11.65;;;;;;;;;;5032813;28;20029;-77
2022/12/25 10:12:22;;;;;;;30.77;11.40;;;;;;;;;;5033411;28;20025;-78
2022/12/25 10:14:54;;;;;;;27.45;11.15;;;;;;;;;;5033113;28;20021;-77
2022/12/25 10:17:39;;;;;;;28.33;10.90;;;;;;;;;;5033127;28;20061;-79
2022/12/25 10:20:17;;;;;;;29.33;11.73;;;;;;;;;;5020248;28;20081;-79
2022/12/25 10:22:45;;;;;;;30.60;11.23;;;;;;;;;;5025521;28;20099;-79
2022/12/25 10:25:16;;;;;;;32.45;12.00;;;;;;;;;;5024107;28;20036;-79
2022/12/25 10:27:42;;;;;;;31.60;11.13;;;;;;;;;;5036894;28;20033;-79
2022/12/25 10:30:26;;;;;;;35.28;10.43;;;;;;;;;;5036168;28;20088;-78
2022/12/25 10:32:52;;;;;;;26.63;10.68;;;;;;;;;;5037206;28;20033;-78
2022/12/25 10:35:20;;;;;;;26.70;11.05;;;;;;;;;;5040572;28;20120;-79
2022/12/25 10:37:58;;;;;;;24.08;9.82;;;;;;;;;;5021803;28;20026;-78
2022/12/25 10:40:30;;;;;;;28.27;10.75;;;;;;;;;;5039766;28;20017;-78
2022/12/25 10:43:00;;;;;;;25.02;10.18;;;;;;;;;;5039885;28;20424;-78
2022/12/25 10:45:26;;;;;;;25.33;10.52;;;;;;;;;;5038980;28;20528;-78
2022/12/25 10:48:00;;;;;;;26.20;9.82;;;;;;;;;;5038557;28;20060;-78
2022/12/25 10:50:28;;;;;;;30.52;10.80;;;;;;;;;;5027259;28;20052;-78
2022/12/25 10:53:00;;;;;;;24.23;10.02;;;;;;;;;;5019403;28;20026;-78
2022/12/25 10:55:26;;;;;;;28.83;10.45;;;;;;;;;;5019019;28;20064;-78
2022/12/25 10:57:53;;;;;;;30.80;11.13;;;;;;;;;;5036799;28;20053;-78
2022/12/25 11:00:23;;;;;;;28.67;11.63;;;;;;;;;;5038501;28;20499;-78
2022/12/25 11:02:49;;;;;;;24.63;10.35;;;;;;;;;;5038401;28;20029;-78
2022/12/25 11:05:30;;;;;;;27.35;10.65;;;;;;;;;;5037833;28;20392;-78
2022/12/25 11:07:57;;;;;;;19.63;7.95;;;;;;;;;;5038128;28;20037;-78
2022/12/25 11:10:25;;;;;;;28.73;10.75;;;;;;;;;;5038037;28;20036;-78
2022/12/25 11:12:52;;;;;;;23.52;9.50;;;;;;;;;;5038076;28;20035;-78
2022/12/25 11:15:33;;;;;;;22.13;10.05;;;;;;;;;;5039397;28;20036;-78
2022/12/25 11:17:59;;;;;;;25.23;9.40;;;;;;;;;;5036650;28;20483;-78
2022/12/25 11:20:25;;;;;;;23.48;9.88;;;;;;;;;;5037789;28;20022;-78
2022/12/25 11:22:51;;;;;;;20.40;8.90;;;;;;;;;;5038189;28;20085;-78
2022/12/25 11:25:21;;;;;;;21.15;8.52;;;;;;;;;;5022850;28;20029;-79
2022/12/25 11:27:56;;;;;;;19.25;8.82;;;;;;;;;;5017955;28;20030;-78
2022/12/25 11:30:29;;;;;;;17.92;7.93;;;;;;;;;;5023855;28;20037;-78
2022/12/25 11:32:57;;;;;;;19.85;8.73;;;;;;;;;;5032461;28;20026;-78
2022/12/25 11:35:27;;;;;;;26.45;9.30;;;;;;;;;;5028376;28;20522;-78
2022/12/25 11:37:53;;;;;;;22.23;9.13;;;;;;;;;;5033107;28;20026;-78
2022/12/25 11:40:22;;;;;;;20.80;9.20;;;;;;;;;;5036761;28;20494;-78
2022/12/25 11:42:50;;;;;;;22.55;9.00;;;;;;;;;;5037423;28;20388;-78
2022/12/25 11:45:17;;;;;;;18.63;8.30;;;;;;;;;;5036731;28;20029;-78
2022/12/25 11:47:45;;;;;;;21.17;8.95;;;;;;;;;;5037736;28;20431;-78
2022/12/25 11:50:15;;;;;;;21.85;9.43;;;;;;;;;;5038561;28;20025;-79
2022/12/25 11:52:44;;;;;;;21.50;8.95;;;;;;;;;;5034513;28;20033;-78
2022/12/25 11:55:31;;;;;;;17.48;8.20;;;;;;;;;;5017412;28;20076;-79
2022/12/25 11:57:59;;;;;;;21.67;8.73;;;;;;;;;;5029873;28;20045;-78
2022/12/25 12:00:27;;;;;;;17.80;8.63;;;;;;;;;;5038040;28;20104;-78
2022/12/25 12:03:11;;;;;;;25.80;11.65;;;;;;;;;;5037290;28;20029;-79
2022/12/25 12:05:54;;;;;;;16.02;7.70;;;;;;;;;;5039419;28;20029;-79
2022/12/25 12:08:20;;;;;;;18.63;8.85;;;;;;;;;;5038497;28;20445;-78
2022/12/25 12:10:57;;;;;;;18.42;7.97;;;;;;;;;;5018766;28;20128;-78
2022/12/25 12:13:26;;;;;;;16.25;7.53;;;;;;;;;;5038985;28;20025;-79
2022/12/25 12:15:52;;;;;;;19.03;7.80;;;;;;;;;;5038571;28;20022;-79
2022/12/25 12:18:27;;;;;;;16.98;7.63;;;;;;;;;;5040444;28;20078;-79
2022/12/25 12:21:12;;;;;;;17.50;7.22;;;;;;;;;;5041197;28;20055;-79
2022/12/25 12:23:49;;;;;;;16.15;7.28;;;;;;;;;;5040449;28;20042;-79
2022/12/25 12:26:22;;;;;;;14.73;7.30;;;;;;;;;;5025375;28;20052;-79
2022/12/25 12:28:49;;;;;;;16.15;7.10;;;;;;;;;;5029002;28;20044;-79
2022/12/25 12:31:16;;;;;;;15.95;7.97;;;;;;;;;;5041108;28;20131;-79
2022/12/25 12:33:48;;;;;;;14.38;7.63;;;;;;;;;;5024857;28;20476;-78
2022/12/25 12:36:15;;;;;;;16.00;7.18;;;;;;;;;;5030761;28;20606;-78
2022/12/25 12:38:43;;;;;;;16.63;6.95;;;;;;;;;;5030469;28;20034;-80
2022/12/25 12:41:10;;;;;;;16.52;8.63;;;;;;;;;;5037986;28;20045;-79
2022/12/25 12:43:44;;;;;;;15.52;8.00;;;;;;;;;;5037631;28;20029;-79
2022/12/25 12:46:19;;;;;;;14.93;7.45;;;;;;;;;;5024167;28;20025;-79
2022/12/25 12:48:46;;;;;;;15.02;7.45;;;;;;;;;;5023451;28;20030;-79
2022/12/25 12:51:33;;;;;;;16.60;6.88;;;;;;;;;;5025060;28;20083;-79
2022/12/25 12:54:19;;;;;;;13.40;6.63;;;;;;;;;;5041577;28;20120;-79
2022/12/25 12:57:17;;;;;;;12.40;7.28;;;;;;;;;;5036855;28;20014;-79
2022/12/25 12:59:45;;;;;;;13.45;7.20;;;;;;;;;;4984637;28;20199;-79
2022/12/25 13:02:21;;;;;;;15.27;6.85;;;;;;;;;;5033106;28;20022;-79
2022/12/25 13:05:10;;;;;;;13.65;6.68;;;;;;;;;;5024526;28;20034;-79
2022/12/25 13:07:42;;;;;;;11.00;6.68;;;;;;;;;;4987761;28;20041;-79
2022/12/25 13:10:17;;;;;;;13.50;7.13;;;;;;;;;;5039212;28;20021;-80
2022/12/25 13:12:44;;;;;;;13.20;7.10;;;;;;;;;;5027466;28;20083;-81
2022/12/25 13:15:13;;;;;;;13.10;6.63;;;;;;;;;;5039144;28;20022;-80
2022/12/25 13:17:42;;;;;;;12.32;7.28;;;;;;;;;;5031972;28;20396;-80
2022/12/25 13:20:17;;;;;;;13.40;7.82;;;;;;;;;;5038807;28;20025;-80
2022/12/25 13:22:43;;;;;;;11.55;6.80;;;;;;;;;;5040061;28;20056;-80
2022/12/25 13:25:18;;;;;;;16.77;7.40;;;;;;;;;;5039275;28;20040;-80
2022/12/25 13:27:44;;;;;;;12.85;6.78;;;;;;;;;;5038869;28;20025;-81
2022/12/25 13:30:13;;;;;;;12.95;6.93;;;;;;;;;;5037914;28;20066;-80
2022/12/25 13:32:40;;;;;;;13.55;7.40;;;;;;;;;;5037707;28;20047;-80
2022/12/25 13:35:11;;;;;;;13.73;6.75;;;;;;;;;;5034009;28;20057;-80
2022/12/25 13:37:38;;;;;;;14.45;7.07;;;;;;;;;;5029828;28;20025;-80
2022/12/25 13:40:05;;;;;;;12.77;7.25;;;;;;;;;;5033298;28;20493;-81
2022/12/25 13:42:35;;;;;;;15.48;7.50;;;;;;;;;;5021681;28;20094;-80
2022/12/25 13:45:06;;;;;;;16.27;7.53;;;;;;;;;;5028521;28;20021;-80
2022/12/25 13:47:38;;;;;;;16.35;7.30;;;;;;;;;;5040827;28;20049;-80
2022/12/25 13:50:31;;;;;;;13.48;7.18;;;;;;;;;;5040793;28;20443;-80
2022/12/25 13:52:58;;;;;;;14.23;7.32;;;;;;;;;;5035456;28;20095;-80
2022/12/25 13:55:25;;;;;;;10.98;7.35;;;;;;;;;;5028467;28;20030;-80
2022/12/25 13:57:56;;;;;;;12.90;7.60;;;;;;;;;;5039910;28;20373;-80
2022/12/25 14:00:26;;;;;;;14.80;7.45;;;;;;;;;;5040514;28;20037;-80
2022/12/25 14:02:52;;;;;;;16.83;8.30;;;;;;;;;;5045955;28;20017;-81
2022/12/25 14:05:23;;;;;;;13.88;7.90;;;;;;;;;;5027485;28;20029;-80
2022/12/25 14:07:53;;;;;;;14.65;7.97;;;;;;;;;;5042692;28;20459;-80
2022/12/25 14:10:19;;;;;;;;;;;;;;;;;;5029673;28;20021;-80
2022/12/25 14:12:48;;;;;;;14.27;7.20;;;;;;;;;;5031930;28;19951;-80
2022/12/25 14:15:15;;;;;;;14.00;7.68;;;;;;;;;;5034516;28;20022;-80
2022/12/25 14:17:41;;;;;;;12.73;7.40;;;;;;;;;;5022865;28;20021;-80
2022/12/25 14:20:21;;;;;;;14.60;7.20;;;;;;;;;;5038948;28;20064;-80
2022/12/25 14:22:51;;;;;;;13.57;7.53;;;;;;;;;;5029156;28;20504;-80
2022/12/25 14:25:18;;;;;;;10.50;7.05;;;;;;;;;;5003696;28;20034;-80
2022/12/25 14:27:50;;;;;;;13.93;7.35;;;;;;;;;;5021678;28;20029;-80
2022/12/25 14:30:17;;;;;;;12.05;7.32;;;;;;;;;;5039840;28;20419;-80
2022/12/25 14:32:45;;;;;;;13.20;7.20;;;;;;;;;;5022084;28;20025;-81
2022/12/25 14:35:12;;;;;;;15.38;7.97;;;;;;;;;;5035741;28;20025;-80
2022/12/25 14:37:40;;;;;;;17.67;8.65;;;;;;;;;;5022954;28;20025;-80
2022/12/25 14:40:20;;;;;;;11.73;7.47;;;;;;;;;;5029088;28;20040;-80
2022/12/25 14:42:59;;;;;;;13.70;7.40;;;;;;;;;;5038093;28;20584;-79
2022/12/25 14:45:30;;;;;;;14.25;7.60;;;;;;;;;;5045995;28;20022;-80
2022/12/25 14:47:57;;;;;;;13.05;7.32;;;;;;;;;;5035805;28;20018;-80
2022/12/25 14:50:31;;;;;;;13.52;7.85;;;;;;;;;;5038183;28;20076;-80
2022/12/25 14:52:58;;;;;;;14.27;7.68;;;;;;;;;;5025587;28;20376;-79
2022/12/25 14:55:26;;;;;;;17.33;8.18;;;;;;;;;;5038778;28;20080;-80
2022/12/25 14:57:57;;;;;;;14.50;7.03;;;;;;;;;;5031667;28;20045;-80
2022/12/25 15:00:35;;;;;;;15.25;7.72;;;;;;;;;;5045057;28;20037;-80
2022/12/25 15:03:02;;;;;;;14.95;7.88;;;;;;;;;;5027214;28;20064;-80
2022/12/25 15:05:33;;;;;;;16.10;8.20;;;;;;;;;;5038405;28;20049;-80
2022/12/25 15:07:59;;;;;;;14.23;8.48;;;;;;;;;;5018651;28;20058;-80
2022/12/25 15:10:25;;;;;;;14.35;7.78;;;;;;;;;;5014672;28;20076;-80
2022/12/25 15:12:51;;;;;;;12.70;8.52;;;;;;;;;;5022662;28;20025;-80
2022/12/25 15:15:17;;;;;;;15.50;9.02;;;;;;;;;;5027030;28;20416;-80
2022/12/25 15:17:43;;;;;;;15.18;8.40;;;;;;;;;;5014721;28;20030;-80
2022/12/25 15:20:11;;;;;;;13.50;8.00;;;;;;;;;;5036742;28;20033;-79
2022/12/25 15:22:37;;;;;;;14.65;8.20;;;;;;;;;;5037315;28;20033;-80
2022/12/25 15:25:03;;;;;;;12.48;7.43;;;;;;;;;;5018677;28;20133;-80
2022/12/25 15:27:29;;;;;;;16.55;8.05;;;;;;;;;;5026967;28;20032;-80
2022/12/25 15:29:55;;;;;;;18.80;8.15;;;;;;;;;;5026518;28;20038;-81
2022/12/25 15:32:22;;;;;;;13.73;7.85;;;;;;;;;;5037248;28;20032;-80
2022/12/25 15:34:48;;;;;;;12.50;7.40;;;;;;;;;;5038563;28;20017;-80
2022/12/25 15:37:15;;;;;;;15.00;7.72;;;;;;;;;;5031222;28;20050;-80
2022/12/25 15:39:41;;;;;;;13.13;7.93;;;;;;;;;;5025717;28;20025;-80
2022/12/25 15:42:14;;;;;;;14.77;9.07;;;;;;;;;;5028648;28;20465;-81
2022/12/25 15:44:41;;;;;;;13.45;8.77;;;;;;;;;;5024610;28;20026;-80
2022/12/25 15:47:09;;;;;;;14.65;8.82;;;;;;;;;;5034977;28;20017;-79
2022/12/25 15:49:35;;;;;;;17.20;9.93;;;;;;;;;;5026919;28;20469;-79
2022/12/25 15:52:02;;;;;;;17.73;9.95;;;;;;;;;;5033492;28;20062;-80
2022/12/25 15:54:29;;;;;;;26.40;14.77;;;;;;;;;;5034019;28;20128;-78
2022/12/25 15:56:56;;;;;;;22.30;13.45;;;;;;;;;;5042002;28;20093;-79
2022/12/25 15:59:22;;;;;;;16.75;10.65;;;;;;;;;;5020336;28;20579;-79
2022/12/25 16:01:49;;;;;;;19.08;10.32;;;;;;;;;;5027678;28;20549;-79
2022/12/25 16:04:16;;;;;;;19.02;10.40;;;;;;;;;;5028883;28;20160;-80
2022/12/25 16:06:42;;;;;;;21.08;10.77;;;;;;;;;;5030874;28;20037;-80
2022/12/25 16:09:09;;;;;;;17.13;9.93;;;;;;;;;;5034595;28;20017;-80
2022/12/25 16:11:35;;;;;;;18.95;9.77;;;;;;;;;;5026130;28;20036;-79
2022/12/25 16:14:01;;;;;;;16.85;8.93;;;;;;;;;;5026409;28;20034;-80